Time,TemperatureF,DewpointF,PressureIn,WindDirection,WindDirectionDegrees,WindSpeedMPH,WindSpeedGustMPH,Humidity,HourlyPrecipIn,Conditions,Clouds,dailyrainin,SoftwareType,DateUTC
2013-09-24 05:42:00,67.0,48.0,29.87,North,355,4.0,-999.0,51,-99.99,,,-99.99,,2013-09-24 12:42:00,
2013-09-24 07:12:00,64.0,48.0,29.88,North,360,4.0,-999.0,57,-99.99,,,-99.99,,2013-09-24 14:12:00,
2013-09-24 10:12:00,71.0,52.0,29.91,NE,48,1.0,-999.0,52,-99.99,,,-99.99,,2013-09-24 17:12:00,
2013-09-24 10:54:00,73.0,54.0,29.92,NE,40,0.0,-999.0,52,-99.99,,,-99.99,,2013-09-24 17:54:00,
2013-09-24 11:22:00,76.0,54.0,29.91,North,5,0.0,-999.0,47,-99.99,,,-99.99,,2013-09-24 18:22:00,
2013-09-24 11:52:00,69.0,53.0,29.91,SW,220,1.0,-999.0,57,-99.99,,,-99.99,,2013-09-24 18:52:00,
2013-09-24 12:11:00,71.0,54.0,29.91,SW,220,0.0,-999.0,55,-99.99,,,-99.99,,2013-09-24 19:11:00,
2013-09-24 12:52:00,75.0,56.0,29.91,West,261,0.0,-999.0,51,-99.99,,,-99.99,,2013-09-24 19:52:00,
2013-09-24 13:11:00,75.0,55.0,29.90,WSW,257,1.0,-999.0,50,-99.99,,,-99.99,,2013-09-24 20:11:00,
2013-09-24 13:22:00,77.0,56.0,29.90,South,190,1.0,-999.0,49,-99.99,,,-99.99,,2013-09-24 20:22:00,
2013-09-24 13:42:00,77.0,55.0,29.89,SW,223,1.0,-999.0,47,-99.99,,,-99.99,,2013-09-24 20:42:00,
2013-09-24 16:22:00,79.0,53.0,29.84,SW,221,2.0,-999.0,40,-99.99,,,-99.99,,2013-09-24 23:22:00,
2013-09-24 16:53:00,75.0,52.0,29.83,NNE,19,4.0,-999.0,44,-99.99,,,-99.99,,2013-09-24 23:53:00,
2013-09-24 17:11:00,74.0,52.0,29.83,WNW,289,4.0,-999.0,46,-99.99,,,-99.99,,2013-09-25 00:11:00,
2013-09-24 17:22:00,72.0,51.0,29.83,NNE,30,5.0,-999.0,48,-99.99,,,-99.99,,2013-09-25 00:22:00,
2013-09-24 17:42:00,71.0,50.0,29.82,NNW,336,4.0,-999.0,48,-99.99,,,-99.99,,2013-09-25 00:42:00,
2013-09-24 17:52:00,70.0,50.0,29.82,North,5,6.0,-999.0,50,-99.99,,,-99.99,,2013-09-25 00:52:00,
2013-09-24 18:12:00,69.0,50.0,29.82,NE,34,6.0,-999.0,50,-99.99,,,-99.99,,2013-09-25 01:12:00,
2013-09-24 18:21:00,70.0,49.0,29.82,North,360,5.0,-999.0,48,-99.99,,,-99.99,,2013-09-25 01:21:00,
2013-09-24 18:42:00,70.0,48.0,29.82,WNW,286,5.0,-999.0,46,-99.99,,,-99.99,,2013-09-25 01:42:00,
2013-09-24 18:52:00,69.0,46.0,29.82,NNW,338,5.0,-999.0,44,-99.99,,,-99.99,,2013-09-25 01:52:00,
2013-09-24 19:11:00,68.0,46.0,29.82,NNW,338,5.0,-999.0,45,-99.99,,,-99.99,,2013-09-25 02:11:00,
2013-09-24 19:21:00,67.0,47.0,29.82,NW,324,6.0,-999.0,48,-99.99,,,-99.99,,2013-09-25 02:21:00,
2013-09-24 19:42:00,66.0,46.0,29.82,NNW,337,6.0,-999.0,48,-99.99,,,-99.99,,2013-09-25 02:42:00,
2013-09-24 19:52:00,65.0,45.0,29.83,NNW,329,6.0,-999.0,49,-99.99,,,-99.99,,2013-09-25 02:52:00,
2013-09-24 20:23:00,64.0,46.0,29.84,NW,315,6.0,-999.0,52,-99.99,,,-99.99,,2013-09-25 03:23:00,
2013-09-24 20:44:00,64.0,47.0,29.85,North,351,5.0,-999.0,53,-99.99,,,-99.99,,2013-09-25 03:44:00,
2013-09-24 20:54:00,64.0,45.0,29.85,NNW,344,4.0,-999.0,51,-99.99,,,-99.99,,2013-09-25 03:54:00,
2013-09-24 21:14:00,64.0,47.0,29.86,NNW,348,4.0,-999.0,53,-99.99,,,-99.99,,2013-09-25 04:14:00,
2013-09-24 21:24:00,63.0,45.0,29.86,NW,324,4.0,-999.0,52,-99.99,,,-99.99,,2013-09-25 04:24:00,
2013-09-24 21:54:00,63.0,45.0,29.86,WNW,302,3.0,-999.0,52,-99.99,,,-99.99,,2013-09-25 04:54:00,
2013-09-24 22:12:00,63.0,44.0,29.86,WNW,302,4.0,-999.0,50,-99.99,,,-99.99,,2013-09-25 05:12:00,
2013-09-24 22:23:00,63.0,45.0,29.87,West,268,3.0,-999.0,51,-99.99,,,-99.99,,2013-09-25 05:23:00,
2013-09-24 22:53:00,62.0,45.0,29.87,North,360,4.0,-999.0,53,-99.99,,,-99.99,,2013-09-25 05:53:00,
2013-09-24 23:13:00,62.0,44.0,29.87,ENE,75,2.0,-999.0,52,-99.99,,,-99.99,,2013-09-25 06:13:00,
2013-09-24 23:23:00,62.0,43.0,29.86,West,266,4.0,-999.0,50,-99.99,,,-99.99,,2013-09-25 06:23:00,
2013-09-24 23:42:00,62.0,43.0,29.86,NW,322,3.0,-999.0,50,-99.99,,,-99.99,,2013-09-25 06:42:00,
2013-09-24 23:52:00,62.0,43.0,29.86,North,360,3.0,-999.0,49,-99.99,,,-99.99,,2013-09-25 06:52:00,